createdAt,value
2023-02-13T00:00:32.835Z,27.52
2023-02-13T00:03:00.361Z,19.92
2023-02-13T00:05:27.983Z,20.63
2023-02-13T00:07:55.538Z,20.70
2023-02-13T00:10:23.217Z,22.83
2023-02-13T00:12:50.825Z,21.52
2023-02-13T00:15:18.417Z,26.67
2023-02-13T00:17:45.965Z,26.55
2023-02-13T00:20:13.673Z,30.35
2023-02-13T00:22:41.372Z,29.30
2023-02-13T00:25:09.333Z,33.67
2023-02-13T00:27:36.981Z,27.00
2023-02-13T00:30:05.387Z,26.42
2023-02-13T00:32:33.050Z,33.47
2023-02-13T00:35:00.595Z,24.42
2023-02-13T00:37:28.200Z,28.17
2023-02-13T00:39:56.296Z,24.67
2023-02-13T00:42:26.378Z,27.20
2023-02-13T00:44:54.784Z,27.33
2023-02-13T00:47:24.063Z,25.58
2023-02-13T00:49:51.666Z,29.38
2023-02-13T00:52:19.274Z,31.85
2023-02-13T00:54:47.624Z,30.35
2023-02-13T00:57:15.297Z,35.95
2023-02-13T00:59:43.523Z,33.97
2023-02-13T01:02:11.100Z,35.15
2023-02-13T01:04:40.465Z,31.33
2023-02-13T01:07:08.221Z,32.83
2023-02-13T01:09:35.844Z,31.10
2023-02-13T01:12:03.593Z,31.50
2023-02-13T01:14:31.313Z,30.92
2023-02-13T01:16:58.976Z,25.73
2023-02-13T01:19:26.629Z,30.35
2023-02-13T01:21:54.290Z,32.38
2023-02-13T01:24:21.883Z,29.75
2023-02-13T01:26:49.532Z,30.45
2023-02-13T01:29:17.385Z,40.80
2023-02-13T01:31:45.060Z,28.63
2023-02-13T01:34:12.722Z,31.02
2023-02-13T01:36:41.751Z,30.20
2023-02-13T01:39:12.197Z,33.90
2023-02-13T01:41:39.828Z,33.33
2023-02-13T01:44:26.114Z,29.13
2023-02-13T01:46:53.746Z,32.30
2023-02-13T01:49:24.014Z,30.35
2023-02-13T01:51:53.702Z,28.83
2023-02-13T01:54:30.809Z,32.40
2023-02-13T01:57:03.051Z,31.40
2023-02-13T01:59:34.206Z,27.50
2023-02-13T02:02:02.022Z,22.42
2023-02-13T02:04:34.173Z,26.20
2023-02-13T02:07:09.268Z,27.27
2023-02-13T02:09:39.361Z,29.85
2023-02-13T02:12:07.066Z,30.10
2023-02-13T02:14:38.486Z,32.05
2023-02-13T02:17:08.297Z,32.65
2023-02-13T02:19:40.018Z,29.63
2023-02-13T02:22:26.369Z,26.02
2023-02-13T02:25:04.496Z,26.45
2023-02-13T02:27:59.442Z,30.42
2023-02-13T02:30:39.743Z,29.30
2023-02-13T02:33:19.793Z,30.42
2023-02-13T02:36:08.173Z,27.77
2023-02-13T02:38:48.037Z,30.27
2023-02-13T02:41:35.688Z,33.35
2023-02-13T02:44:18.668Z,34.15
2023-02-13T02:47:12.947Z,30.55
2023-02-13T02:50:01.037Z,29.63
2023-02-13T02:52:47.565Z,32.45
2023-02-13T02:55:22.283Z,30.38
2023-02-13T02:58:21.806Z,33.13
2023-02-13T03:01:19.596Z,28.20
2023-02-13T03:04:07.322Z,34.33
2023-02-13T03:06:41.040Z,28.17
2023-02-13T03:09:30.505Z,27.95
2023-02-13T03:12:17.431Z,27.75
2023-02-13T03:14:45.285Z,27.98
2023-02-13T03:17:32.596Z,27.75
2023-02-13T03:20:33.820Z,27.33
2023-02-13T03:23:15.906Z,25.55
2023-02-13T03:25:55.478Z,30.48
2023-02-13T03:29:06.376Z,27.92
2023-02-13T03:31:47.704Z,28.60
2023-02-13T03:34:17.882Z,30.55
2023-02-13T03:37:04.176Z,29.17
2023-02-13T03:39:37.737Z,27.08
2023-02-13T03:42:06.955Z,30.27
2023-02-13T03:44:40.500Z,27.67
2023-02-13T03:47:09.621Z,26.67
2023-02-13T03:49:59.846Z,28.92
2023-02-13T03:52:32.388Z,28.92
2023-02-13T03:55:20.913Z,27.80
2023-02-13T03:58:07.813Z,28.35
2023-02-13T04:00:40.351Z,29.80
2023-02-13T04:03:14.853Z,28.85
2023-02-13T04:05:45.639Z,27.35
2023-02-13T04:08:13.279Z,26.35
2023-02-13T04:10:46.462Z,20.77
2023-02-13T04:13:16.681Z,24.48
2023-02-13T04:15:50.829Z,25.23
2023-02-13T04:18:20.038Z,22.60
2023-02-13T04:20:47.701Z,22.88
2023-02-13T04:23:16.042Z,19.90
2023-02-13T04:25:45.120Z,18.70
2023-02-13T04:28:12.716Z,19.95
2023-02-13T04:30:40.394Z,21.55
2023-02-13T04:33:08.028Z,22.15
2023-02-13T04:35:35.603Z,22.48
2023-02-13T04:38:03.499Z,22.50
2023-02-13T04:40:31.088Z,23.70
2023-02-13T04:42:59.065Z,24.38
2023-02-13T04:45:26.687Z,21.25
2023-02-13T04:47:55.494Z,20.42
2023-02-13T04:50:23.187Z,17.73
2023-02-13T04:52:55.130Z,20.60
2023-02-13T04:55:23.331Z,18.83
2023-02-13T04:57:53.383Z,16.08
2023-02-13T05:00:21.761Z,16.20
2023-02-13T05:02:49.320Z,15.60
2023-02-13T05:05:17.085Z,16.27
2023-02-13T05:07:44.655Z,17.23
2023-02-13T05:10:12.722Z,17.17
2023-02-13T05:12:40.258Z,16.27
2023-02-13T05:15:08.101Z,16.65
2023-02-13T05:17:35.669Z,18.65
2023-02-13T05:20:03.297Z,18.10
2023-02-13T05:22:49.384Z,15.48
2023-02-13T05:25:16.950Z,18.30
2023-02-13T05:27:44.589Z,18.27
2023-02-13T05:30:12.581Z,19.42
2023-02-13T05:32:42.409Z,18.25
2023-02-13T05:35:10.049Z,15.77
2023-02-13T05:37:37.631Z,16.52
2023-02-13T05:40:05.322Z,19.00
2023-02-13T05:42:32.874Z,17.33
2023-02-13T05:45:00.436Z,18.92
2023-02-13T05:47:28.075Z,19.75
2023-02-13T05:49:55.628Z,23.13
2023-02-13T05:52:23.260Z,23.02
2023-02-13T05:54:51.487Z,24.00
2023-02-13T05:57:19.301Z,24.55
2023-02-13T05:59:46.829Z,22.90
2023-02-13T06:02:14.444Z,23.25
2023-02-13T06:04:42.119Z,21.35
2023-02-13T06:07:09.798Z,25.25
2023-02-13T06:09:37.412Z,27.38
2023-02-13T06:12:05.041Z,25.08
2023-02-13T06:14:32.604Z,24.33
2023-02-13T06:17:01.626Z,26.40
2023-02-13T06:19:29.213Z,27.83
2023-02-13T06:21:56.798Z,26.45
2023-02-13T06:24:24.418Z,23.80
2023-02-13T06:26:52.074Z,26.85
2023-02-13T06:29:19.616Z,26.52
2023-02-13T06:31:47.237Z,28.52
2023-02-13T06:34:14.943Z,23.77
2023-02-13T06:36:42.683Z,23.73
2023-02-13T06:39:11.608Z,23.65
2023-02-13T06:41:39.144Z,23.08
2023-02-13T06:44:07.852Z,22.77
2023-02-13T06:46:35.520Z,27.58
2023-02-13T06:49:03.261Z,28.60
2023-02-13T06:51:30.830Z,30.50
2023-02-13T06:53:58.540Z,27.58
2023-02-13T06:56:26.378Z,27.23
2023-02-13T06:58:54.106Z,28.23
2023-02-13T07:01:21.817Z,30.52
2023-02-13T07:03:49.536Z,29.33
2023-02-13T07:06:20.450Z,31.17
2023-02-13T07:08:48.522Z,33.73
2023-02-13T07:11:23.446Z,31.02
2023-02-13T07:13:51.624Z,34.72
2023-02-13T07:16:19.349Z,34.58
2023-02-13T07:18:47.016Z,32.78
2023-02-13T07:21:14.824Z,32.17
2023-02-13T07:23:42.433Z,33.00
2023-02-13T07:26:11.139Z,27.95
2023-02-13T07:28:38.807Z,27.30
2023-02-13T07:31:07.042Z,27.92
2023-02-13T07:33:35.444Z,30.17
2023-02-13T07:36:03.970Z,32.47
2023-02-13T07:38:32.072Z,32.58
2023-02-13T07:41:03.509Z,32.22
2023-02-13T07:43:31.141Z,32.50
2023-02-13T07:45:59.465Z,31.13
2023-02-13T07:48:27.454Z,29.70
2023-02-13T07:50:55.740Z,30.77
2023-02-13T07:53:23.431Z,28.83
2023-02-13T07:55:51.012Z,29.70
2023-02-13T07:58:18.679Z,28.20
2023-02-13T08:00:46.335Z,29.58
2023-02-13T08:03:13.967Z,27.58
2023-02-13T08:05:41.698Z,25.77
2023-02-13T08:08:09.309Z,35.42
2023-02-13T08:10:55.521Z,33.53
2023-02-13T08:13:23.082Z,31.52
2023-02-13T08:15:50.674Z,34.58
2023-02-13T08:18:19.728Z,35.42
2023-02-13T08:20:48.483Z,34.78
2023-02-13T08:23:16.170Z,37.80
2023-02-13T08:25:43.897Z,30.63
2023-02-13T08:28:11.558Z,38.10
2023-02-13T08:30:39.233Z,35.63
2023-02-13T08:33:07.857Z,33.70
2023-02-13T08:35:35.754Z,32.53
2023-02-13T08:38:04.462Z,29.67
2023-02-13T08:40:32.755Z,34.00
2023-02-13T08:43:01.344Z,31.33
2023-02-13T08:45:28.981Z,32.92
2023-02-13T08:47:57.518Z,29.92
2023-02-13T08:50:25.839Z,35.38
2023-02-13T08:52:53.742Z,33.53
2023-02-13T08:55:21.326Z,33.28
2023-02-13T08:57:48.891Z,32.38
2023-02-13T09:00:16.565Z,31.30
2023-02-13T09:02:44.310Z,28.02
2023-02-13T09:05:11.866Z,27.63
2023-02-13T09:07:39.429Z,29.08
2023-02-13T09:10:07.358Z,26.83
2023-02-13T09:12:35.105Z,26.63
2023-02-13T09:15:02.658Z,23.40
2023-02-13T09:17:30.281Z,28.00
2023-02-13T09:19:57.839Z,29.90
2023-02-13T09:22:25.378Z,25.48
2023-02-13T09:24:52.916Z,27.55
2023-02-13T09:27:20.515Z,28.67
2023-02-13T09:29:48.568Z,38.25
2023-02-13T09:32:16.990Z,31.30
2023-02-13T09:34:44.590Z,27.35
2023-02-13T09:37:12.132Z,32.45
2023-02-13T09:39:39.797Z,29.45
2023-02-13T09:42:12.108Z,29.70
2023-02-13T09:44:43.056Z,29.65
2023-02-13T09:47:25.650Z,28.73
2023-02-13T09:50:04.893Z,26.63
2023-02-13T09:52:36.502Z,22.90
2023-02-13T09:55:04.785Z,25.38
2023-02-13T09:57:35.181Z,28.42
2023-02-13T10:00:32.253Z,28.73
2023-02-13T10:03:01.075Z,29.92
2023-02-13T10:05:34.615Z,28.75
2023-02-13T10:08:07.900Z,27.83
2023-02-13T10:10:52.560Z,26.65
2023-02-13T10:13:23.504Z,27.30
2023-02-13T10:16:09.801Z,29.67
2023-02-13T10:18:46.304Z,26.83
2023-02-13T10:21:14.798Z,30.20
2023-02-13T10:23:48.490Z,29.67
2023-02-13T10:26:21.337Z,31.05
2023-02-13T10:29:17.926Z,32.25
2023-02-13T10:31:46.330Z,32.95
2023-02-13T10:34:16.288Z,29.98
2023-02-13T10:36:47.852Z,26.65
2023-02-13T10:39:18.441Z,30.83
2023-02-13T10:42:04.463Z,26.92
2023-02-13T10:44:52.740Z,26.55
2023-02-13T10:47:23.141Z,23.85
2023-02-13T10:50:00.627Z,26.52
2023-02-13T10:52:45.807Z,25.45
2023-02-13T10:55:32.018Z,28.20
2023-02-13T10:58:09.717Z,27.25
2023-02-13T11:00:37.366Z,27.10
2023-02-13T11:03:05.093Z,26.98
2023-02-13T11:05:34.428Z,25.17
2023-02-13T11:08:03.149Z,24.80
2023-02-13T11:10:30.707Z,29.98
2023-02-13T11:12:59.013Z,25.30
2023-02-13T11:15:26.677Z,29.50
2023-02-13T11:17:55.530Z,24.60
2023-02-13T11:20:44.651Z,28.15
2023-02-13T11:23:18.274Z,25.65
2023-02-13T11:26:15.330Z,24.30
2023-02-13T11:28:48.341Z,23.58
2023-02-13T11:31:27.045Z,23.95
2023-02-13T11:33:54.768Z,31.67
2023-02-13T11:36:33.365Z,24.85
2023-02-13T11:39:05.859Z,25.73
2023-02-13T11:41:43.545Z,23.92
2023-02-13T11:44:37.325Z,28.30
2023-02-13T11:47:05.029Z,23.15
2023-02-13T11:49:34.642Z,27.20
2023-02-13T11:52:03.054Z,27.00
2023-02-13T11:54:36.561Z,24.70
2023-02-13T11:57:17.815Z,27.77
2023-02-13T11:59:46.751Z,30.15
2023-02-13T12:02:23.600Z,29.35
2023-02-13T12:04:53.079Z,30.40
2023-02-13T12:07:22.756Z,26.10
2023-02-13T12:10:02.380Z,25.52
2023-02-13T12:12:35.038Z,26.00
2023-02-13T12:15:15.726Z,27.33
2023-02-13T12:17:45.176Z,27.42
2023-02-13T12:20:14.667Z,27.70
2023-02-13T12:22:48.385Z,27.20
2023-02-13T12:25:28.461Z,28.48
2023-02-13T12:28:03.009Z,28.98
2023-02-13T12:30:36.485Z,29.52
2023-02-13T12:33:19.199Z,27.80
2023-02-13T12:36:05.610Z,25.40
2023-02-13T12:38:38.645Z,28.38
2023-02-13T12:41:12.378Z,26.90
2023-02-13T12:43:39.889Z,30.77
2023-02-13T12:46:11.661Z,25.65
2023-02-13T12:51:18.437Z,30.13
2023-02-13T12:54:04.671Z,29.23
2023-02-13T12:56:38.277Z,27.48
2023-02-13T12:59:10.891Z,27.25
2023-02-13T13:01:51.665Z,28.20
2023-02-13T13:04:40.351Z,28.40
2023-02-13T13:07:14.953Z,30.65
2023-02-13T13:09:45.276Z,27.92
2023-02-13T13:12:12.886Z,27.08
2023-02-13T13:15:09.507Z,27.20
2023-02-13T13:17:49.426Z,30.10
2023-02-13T13:20:28.651Z,26.67
2023-02-13T13:23:19.269Z,27.52
2023-02-13T13:25:49.664Z,27.88
2023-02-13T13:28:21.683Z,29.17
2023-02-13T13:30:49.928Z,30.00
2023-02-13T13:33:18.984Z,26.23
2023-02-13T13:36:06.937Z,29.10
2023-02-13T13:38:34.499Z,27.73
2023-02-13T13:41:25.169Z,25.60
2023-02-13T13:44:10.889Z,25.05
2023-02-13T13:46:49.122Z,24.73
2023-02-13T13:49:37.234Z,23.45
2023-02-13T13:52:23.464Z,23.13
2023-02-13T13:54:54.463Z,25.88
2023-02-13T13:57:23.157Z,23.23
2023-02-13T13:59:58.446Z,22.70
2023-02-13T14:02:26.029Z,21.80
2023-02-13T14:05:02.785Z,24.80
2023-02-13T14:07:43.501Z,23.55
2023-02-13T14:10:31.385Z,25.33
2023-02-13T14:12:58.952Z,26.52
2023-02-13T14:15:37.526Z,26.25
2023-02-13T14:18:08.262Z,20.40
2023-02-13T14:20:41.014Z,21.73
2023-02-13T14:23:18.200Z,22.40
2023-02-13T14:25:46.577Z,22.63
2023-02-13T14:28:27.716Z,22.95
2023-02-13T14:31:06.125Z,19.77
2023-02-13T14:33:34.241Z,24.33
2023-02-13T14:36:09.941Z,20.75
2023-02-13T14:38:38.008Z,20.73
2023-02-13T14:41:07.256Z,24.58
2023-02-13T14:43:39.063Z,21.52
2023-02-13T14:48:42.633Z,21.65
2023-02-13T14:51:17.311Z,20.00
2023-02-13T14:53:53.352Z,24.70
2023-02-13T14:56:22.917Z,25.10
2023-02-13T14:58:53.290Z,22.67
2023-02-13T15:01:34.521Z,21.90
2023-02-13T15:04:11.839Z,23.08
2023-02-13T15:06:41.657Z,21.45
2023-02-13T15:09:21.002Z,19.23
2023-02-13T15:11:48.554Z,20.75
2023-02-13T15:14:19.218Z,19.33
2023-02-13T15:16:49.079Z,20.23
2023-02-13T15:19:18.041Z,19.27
2023-02-13T15:21:53.282Z,25.27
2023-02-13T15:24:24.944Z,20.88
2023-02-13T15:27:03.275Z,20.63
2023-02-13T15:29:47.586Z,23.10
2023-02-13T15:32:21.721Z,19.20
2023-02-13T15:34:49.580Z,21.52
2023-02-13T15:37:24.293Z,23.25
2023-02-13T15:39:51.893Z,21.88
2023-02-13T15:42:19.610Z,21.45
2023-02-13T15:44:52.353Z,22.38
2023-02-13T15:47:27.705Z,21.85
2023-02-13T15:49:55.398Z,23.58
2023-02-13T15:52:34.220Z,23.55
2023-02-13T15:55:01.947Z,21.65
2023-02-13T15:57:29.844Z,23.33
2023-02-13T15:59:58.087Z,20.17
2023-02-13T16:02:42.612Z,24.38
2023-02-13T16:05:11.888Z,24.60
2023-02-13T16:07:53.037Z,20.88
2023-02-13T16:10:34.225Z,26.52
2023-02-13T16:13:03.432Z,23.77
2023-02-13T16:15:32.569Z,24.55
2023-02-13T16:18:00.410Z,28.98
2023-02-13T16:20:29.225Z,25.88
2023-02-13T16:22:59.174Z,24.77
2023-02-13T16:25:28.855Z,25.33
2023-02-13T16:27:58.039Z,23.65
2023-02-13T16:30:41.672Z,26.25
2023-02-13T16:33:12.100Z,28.98
2023-02-13T16:35:42.023Z,25.30
2023-02-13T16:38:29.369Z,25.88
2023-02-13T16:40:58.484Z,24.92
2023-02-13T16:43:35.139Z,26.13
2023-02-13T16:46:23.577Z,23.88
2023-02-13T16:48:57.456Z,28.17
2023-02-13T16:51:33.768Z,29.58
2023-02-13T16:54:03.669Z,26.95
2023-02-13T16:56:41.933Z,25.73
2023-02-13T16:59:15.307Z,23.45
2023-02-13T17:01:42.890Z,24.90
2023-02-13T17:04:16.765Z,26.00
2023-02-13T17:06:44.386Z,29.63
2023-02-13T17:09:12.095Z,27.45
2023-02-13T17:11:39.920Z,26.30
2023-02-13T17:14:07.533Z,27.63
2023-02-13T17:16:35.198Z,27.98
2023-02-13T17:19:02.845Z,28.00
2023-02-13T17:21:30.375Z,26.42
2023-02-13T17:23:58.089Z,28.17
2023-02-13T17:26:25.656Z,27.50
2023-02-13T17:28:53.223Z,27.90
2023-02-13T17:31:20.973Z,28.10
2023-02-13T17:33:48.574Z,27.38
2023-02-13T17:36:16.110Z,27.30
2023-02-13T17:38:43.632Z,28.52
2023-02-13T17:41:15.485Z,28.00
2023-02-13T17:46:11.586Z,27.90
2023-02-13T17:48:39.156Z,31.55
2023-02-13T17:51:06.681Z,30.20
2023-02-13T17:53:34.690Z,30.60
2023-02-13T17:56:02.388Z,32.10
2023-02-13T17:58:29.970Z,30.88
2023-02-13T18:00:58.143Z,32.05
2023-02-13T18:03:26.013Z,31.83
2023-02-13T18:05:53.623Z,30.27
2023-02-13T18:08:21.178Z,30.42
2023-02-13T18:10:48.849Z,32.97
2023-02-13T18:13:16.452Z,33.28
2023-02-13T18:15:45.220Z,34.17
2023-02-13T18:18:14.253Z,33.85
2023-02-13T18:20:41.898Z,33.58
2023-02-13T18:23:09.788Z,34.63
2023-02-13T18:25:37.363Z,35.50
2023-02-13T18:28:05.009Z,31.25
2023-02-13T18:30:32.670Z,36.55
2023-02-13T18:33:04.799Z,33.53
2023-02-13T18:35:33.274Z,36.15
2023-02-13T18:38:00.821Z,33.88
2023-02-13T18:40:28.376Z,34.75
2023-02-13T18:42:55.949Z,39.58
2023-02-13T18:45:23.533Z,35.53
2023-02-13T18:47:51.072Z,32.78
2023-02-13T18:50:18.648Z,34.88
2023-02-13T18:52:46.728Z,33.88
2023-02-13T18:55:14.319Z,32.95
2023-02-13T18:57:43.545Z,36.78
2023-02-13T19:00:11.672Z,34.97
2023-02-13T19:02:39.269Z,35.67
2023-02-13T19:05:07.063Z,33.78
2023-02-13T19:07:34.693Z,34.22
2023-02-13T19:10:02.307Z,34.60
2023-02-13T19:12:29.897Z,60.90
2023-02-13T19:14:57.459Z,42.47
2023-02-13T19:17:25.145Z,36.03
2023-02-13T19:19:52.754Z,36.40
2023-02-13T19:22:20.302Z,36.47
2023-02-13T19:24:47.983Z,37.20
2023-02-13T19:27:15.522Z,37.58
2023-02-13T19:29:43.630Z,35.40
2023-02-13T19:32:11.464Z,37.65
2023-02-13T19:34:39.450Z,34.03
2023-02-13T19:37:07.017Z,33.63
2023-02-13T19:39:34.841Z,34.50
2023-02-13T19:42:02.427Z,33.65
2023-02-13T19:44:29.999Z,37.30
2023-02-13T19:46:57.572Z,72.07
2023-02-13T19:49:25.166Z,45.72
2023-02-13T19:51:52.712Z,40.03
2023-02-13T19:54:20.367Z,38.45
2023-02-13T19:56:48.021Z,40.10
2023-02-13T19:59:15.689Z,42.75
2023-02-13T20:01:43.454Z,41.05
2023-02-13T20:04:11.454Z,42.38
2023-02-13T20:06:39.309Z,40.67
2023-02-13T20:09:12.595Z,42.35
2023-02-13T20:11:41.287Z,43.28
2023-02-13T20:14:11.547Z,46.08
2023-02-13T20:16:39.420Z,45.05
2023-02-13T20:19:09.437Z,46.80
2023-02-13T20:21:37.301Z,45.55
2023-02-13T20:24:05.614Z,47.58
2023-02-13T20:26:34.685Z,43.97
2023-02-13T20:29:02.624Z,45.53
2023-02-13T20:31:30.845Z,49.63
2023-02-13T20:33:58.876Z,44.63
2023-02-13T20:36:27.903Z,45.28
2023-02-13T20:38:57.293Z,49.05
2023-02-13T20:41:26.210Z,51.25
2023-02-13T20:43:54.018Z,42.75
2023-02-13T20:46:21.562Z,45.25
2023-02-13T20:48:50.088Z,48.13
2023-02-13T20:51:18.293Z,47.63
2023-02-13T20:53:46.130Z,48.97
2023-02-13T20:56:15.222Z,46.33
2023-02-13T20:58:43.413Z,48.50
2023-02-13T21:01:12.429Z,42.97
2023-02-13T21:03:40.193Z,48.13
2023-02-13T21:06:08.122Z,37.30
2023-02-13T21:08:36.390Z,35.65
2023-02-13T21:11:08.203Z,37.95
2023-02-13T21:16:07.204Z,37.08
2023-02-13T21:18:35.528Z,33.88
2023-02-13T21:21:03.198Z,34.80
2023-02-13T21:23:31.029Z,34.67
2023-02-13T21:26:02.723Z,40.38
2023-02-13T21:28:30.467Z,35.47
2023-02-13T21:30:58.495Z,35.08
2023-02-13T21:33:26.320Z,35.25
2023-02-13T21:36:00.029Z,35.28
2023-02-13T21:38:27.591Z,41.60
2023-02-13T21:40:55.153Z,34.58
2023-02-13T21:43:23.160Z,36.25
2023-02-13T21:45:50.749Z,40.03
2023-02-13T21:48:18.292Z,39.33
2023-02-13T21:50:45.933Z,42.72
2023-02-13T21:53:13.496Z,38.20
2023-02-13T21:55:41.039Z,37.65
2023-02-13T21:58:08.994Z,45.30
2023-02-13T22:00:36.557Z,37.30
2023-02-13T22:03:04.225Z,38.28
2023-02-13T22:05:31.883Z,39.20
2023-02-13T22:08:12.412Z,39.38
2023-02-13T22:10:40.025Z,33.63
2023-02-13T22:13:07.647Z,35.75
2023-02-13T22:15:36.349Z,45.65
2023-02-13T22:18:03.979Z,48.17
2023-02-13T22:20:32.226Z,65.22
2023-02-13T22:22:59.774Z,33.83
2023-02-13T22:25:27.383Z,35.03
2023-02-13T22:27:54.932Z,38.08
2023-02-13T22:30:22.569Z,35.03
2023-02-13T22:32:50.158Z,42.05
2023-02-13T22:35:17.768Z,54.97
2023-02-13T22:37:45.333Z,91.30
2023-02-13T22:40:13.010Z,132.77
2023-02-13T22:42:41.565Z,34.28
2023-02-13T22:45:09.479Z,39.47
2023-02-13T22:47:37.028Z,34.63
2023-02-13T22:50:04.692Z,34.00
2023-02-13T22:52:32.279Z,38.70
2023-02-13T22:54:59.937Z,31.67
2023-02-13T22:57:27.486Z,38.65
2023-02-13T22:59:55.193Z,50.33
2023-02-13T23:02:22.839Z,51.70
2023-02-13T23:04:50.442Z,41.72
2023-02-13T23:07:18.399Z,34.75
2023-02-13T23:09:46.215Z,33.22
2023-02-13T23:12:32.576Z,35.67
2023-02-13T23:15:00.481Z,95.85
2023-02-13T23:17:46.951Z,91.78
2023-02-13T23:20:14.553Z,37.38
2023-02-13T23:22:42.117Z,55.60
2023-02-13T23:25:09.733Z,109.88
2023-02-13T23:27:37.472Z,45.50
2023-02-13T23:30:06.317Z,98.20
2023-02-13T23:32:33.982Z,42.97
2023-02-13T23:35:01.683Z,73.60
2023-02-13T23:37:29.329Z,91.43
2023-02-13T23:39:57.029Z,52.30
2023-02-13T23:42:24.658Z,48.88
2023-02-13T23:44:52.203Z,72.72
2023-02-13T23:47:19.767Z,57.08
2023-02-13T23:49:47.360Z,85.40
2023-02-13T23:52:14.930Z,54.25
2023-02-13T23:54:42.657Z,104.22
2023-02-13T23:57:10.814Z,124.60
2023-02-13T23:59:38.621Z,132.80
